Minerva, NY (12851)

3:26 AM EDT on October 25, 2014 (GMT -0400)
Old River Road | Change Station
CLOSE
Current Station
Personal Weather Station
Location: North Creek, NY
Elevation: 1030 ft
Nearby Weather Stations

Elev 1030 ft 43.71 °N, 73.99 °W | Updated 4 seconds ago

Fog
Fog
36.8 °F
Feels Like 37 °F
N
0.0
Wind Variable Wind from NNW
Gusts 1.0 mph

Today
High -- | Low -- °F
--% Chance of Precip.
Yesterday
High -- | Low -- °F
Precip. -- in
7:22 AM 5:56 PM
New Moon, 2% visible
Pressure 29.82 in
Visibility 0.2 miles
Clouds
Windchill 37 °F
Dew Point 36 °F
Humidity 95%
Rainfall 0.00 in
Snow Depth Not available.
UV Not available.
Pollen .10 out of 12
Air Quality Not available.
Flu Activity Sporadic
SPECI KGFL 250700Z AUTO 00000KT 1/4SM FG VV002 06/06 A2982 RMK AO2 T00610056

More Conditions Fewer Conditions

Pressure 29.82 in
Visibility 0.2 miles
Clouds
Windchill 37 °F
Dew Point 36 °F
Humidity 95%
Rainfall 0.00 in
Snow Depth Not available.
UV Not available.
Pollen .10 out of 12
Air Quality Not available.
Flu Activity Sporadic
SPECI KGFL 250700Z AUTO 00000KT 1/4SM FG VV002 06/06 A2982 RMK AO2 T00610056

More Conditions Fewer Conditions

10-Day Weather Forecast

Almanac

Astronomy

Oct. 25, 2014 Rise Set
Actual Time 7:22 AM EDT 5:56 PM EDT
Civil Twilight 6:53 AM EDT 6:25 PM EDT
Nautical Twilight 6:19 AM EDT 6:59 PM EDT
Astronomical Twilight 5:46 AM EDT 7:32 PM EDT
Moon 9:01 AM EDT 7:14 PM EDT
Length of Visible Light 11h 32m
Length of Day
10h 33m
Tomorrow will be 2m 46s shorter.
New Moon, 2% of the Moon is Illuminated
Today
New Moon
Oct 30
First Quarter
Nov 6
Full
Nov 14
Last Quarter
Nov 22
New

Today's Extremes

State Highs State Lows

Community

WunderPhotos

Upload Photos

1,764,789 photos uploaded!

Nearby

Air Quality

  Air Quality AQ Index Pollutant
Saturday Good
PM2.5
Sunday Good
PM2.5
Monday Good
PM2.5

Snow Depth

Station Depth Elevation
No new snow has been reported.

Earthquake Activity

City Distance Mag. Time & Date
No recent earthquake activity has been reported nearby.
Minimum magnitude displayed is 2.5.

Coastal Water Temperatures

Place Temperature
No Stations Reporting

Nearby Weather Stations